Time;durP1;ratioP1;P1;durP2;ratioP2;P2;SDS_P1;SDS_P2;PMS_P1;PMS_P2;Temp;Humidity;BMP_temperature;BMP_pressure;BME280_temperature;BME280_humidity;BME280_pressure;Samples;Min_cycle;Max_cycle;Signal;HPM_P1;HPM_P2
2023/06/26 00:01:58;;;;;;;10.88;7.32;;;;;;;18.54;62.63;96333.09;5073072;28;20045;-74
2023/06/26 00:04:24;;;;;;;13.43;7.68;;;;;;;18.49;62.81;96325.94;5072546;28;20040;-74
2023/06/26 00:06:50;;;;;;;10.00;7.32;;;;;;;18.46;63.61;96330.22;5072867;28;20044;-74
2023/06/26 00:09:17;;;;;;;12.52;7.53;;;;;;;18.42;64.24;96326.59;5072452;28;20044;-74
2023/06/26 00:11:45;;;;;;;9.73;7.18;;;;;;;18.39;64.68;96330.13;5072086;28;20052;-74
2023/06/26 00:14:11;;;;;;;10.68;7.07;;;;;;;18.38;65.05;96322.22;5072321;28;20048;-74
2023/06/26 00:16:38;;;;;;;11.57;7.75;;;;;;;18.36;64.73;96330.03;5072527;28;20060;-74
2023/06/26 00:19:04;;;;;;;10.52;7.45;;;;;;;18.32;64.04;96329.97;5072145;28;20041;-74
2023/06/26 00:21:31;;;;;;;9.10;7.13;;;;;;;18.29;64.02;96333.50;5072513;28;20075;-73
2023/06/26 00:23:57;;;;;;;10.07;7.40;;;;;;;18.26;64.45;96334.22;5072360;28;20037;-73
2023/06/26 00:26:25;;;;;;;11.40;7.35;;;;;;;18.21;64.80;96337.28;5072031;28;20044;-73
2023/06/26 00:28:52;;;;;;;12.75;7.70;;;;;;;18.14;65.77;96331.66;5064607;28;20040;-74
2023/06/26 00:31:19;;;;;;;10.48;7.03;;;;;;;18.11;65.61;96330.41;5071849;28;20059;-74
2023/06/26 00:33:45;;;;;;;10.57;7.25;;;;;;;18.09;65.72;96334.72;5072246;28;20079;-74
2023/06/26 00:36:12;;;;;;;10.07;7.57;;;;;;;18.06;65.59;96335.44;5071680;28;20059;-74
2023/06/26 00:38:38;;;;;;;10.35;7.65;;;;;;;18.02;65.24;96329.88;5072248;28;20044;-74
2023/06/26 00:41:11;;;;;;;10.40;7.57;;;;;;;18.00;65.44;96330.22;5071737;28;20047;-74
2023/06/26 00:43:38;;;;;;;;;;;;;;;17.99;65.48;96330.59;5074496;28;20510;-73
2023/06/26 00:46:09;;;;;;;10.77;7.55;;;;;;;17.91;65.55;96321.44;5077686;28;19920;-73
2023/06/26 00:48:36;;;;;;;10.95;7.70;;;;;;;17.85;65.87;96328.38;5072202;28;20051;-74
2023/06/26 00:51:02;;;;;;;9.88;7.22;;;;;;;17.83;66.17;96340.94;5071516;28;20052;-74
2023/06/26 00:53:29;;;;;;;9.70;6.72;;;;;;;17.81;67.35;96341.31;5072376;28;20044;-74
2023/06/26 00:55:56;;;;;;;11.77;7.45;;;;;;;17.75;67.67;96340.00;5084130;28;20041;-74
2023/06/26 00:58:25;;;;;;;11.85;7.45;;;;;;;17.73;67.71;96339.56;5087978;28;20114;-73
2023/06/26 01:00:51;;;;;;;11.73;7.85;;;;;;;17.69;68.26;96338.66;5088528;28;20040;-73
2023/06/26 01:03:20;;;;;;;12.25;8.00;;;;;;;17.65;68.34;96335.06;5071294;28;20045;-74
2023/06/26 01:05:49;;;;;;;11.82;7.68;;;;;;;17.65;68.58;96340.56;5070698;28;20076;-74
2023/06/26 01:08:16;;;;;;;11.25;7.88;;;;;;;17.63;68.31;96337.38;5070724;28;20056;-74
2023/06/26 01:10:43;;;;;;;10.23;7.25;;;;;;;17.61;68.39;96336.94;5085915;28;20040;-74
2023/06/26 01:13:10;;;;;;;12.25;7.57;;;;;;;17.60;69.18;96338.13;5070494;28;20045;-74
2023/06/26 01:15:36;;;;;;;9.07;7.07;;;;;;;17.58;69.31;96337.66;5071116;28;20041;-74
2023/06/26 01:18:04;;;;;;;9.48;6.90;;;;;;;17.54;68.73;96334.03;5071005;28;20052;-74
2023/06/26 01:20:32;;;;;;;10.68;7.13;;;;;;;17.51;68.96;96334.78;5071215;28;20040;-74
2023/06/26 01:23:07;;;;;;;9.68;7.45;;;;;;;17.45;69.43;96331.53;5071065;28;20458;-73
2023/06/26 01:25:40;;;;;;;11.77;7.75;;;;;;;17.40;68.92;96337.31;5071318;28;20037;-73
2023/06/26 01:28:09;;;;;;;9.23;6.88;;;;;;;17.33;69.10;96340.72;5070945;28;20578;-74
2023/06/26 01:30:37;;;;;;;10.07;7.28;;;;;;;17.30;69.33;96333.19;5080155;28;20043;-74
2023/06/26 01:33:04;;;;;;;12.18;7.88;;;;;;;17.29;69.32;96331.59;5086235;28;20049;-74
2023/06/26 01:35:31;;;;;;;10.60;7.20;;;;;;;17.29;70.16;96339.84;5079850;28;20047;-74
2023/06/26 01:38:12;;;;;;;11.93;7.28;;;;;;;17.25;70.42;96336.22;5071921;28;20055;-74
2023/06/26 01:40:39;;;;;;;10.95;7.72;;;;;;;17.26;71.23;96337.03;5072029;28;20041;-73
2023/06/26 01:43:12;;;;;;;11.10;7.97;;;;;;;17.24;70.73;96337.41;5071013;28;20685;-74
2023/06/26 01:45:40;;;;;;;10.85;7.78;;;;;;;17.20;70.58;96336.50;5088469;28;20040;-73
2023/06/26 01:48:09;;;;;;;10.68;7.70;;;;;;;17.19;70.94;96335.72;5071693;28;20048;-74
2023/06/26 01:50:37;;;;;;;11.25;7.25;;;;;;;17.16;70.83;96330.13;5073571;28;20515;-74
2023/06/26 01:53:11;;;;;;;11.07;7.30;;;;;;;17.16;70.98;96330.94;5075891;28;20044;-74
2023/06/26 01:55:44;;;;;;;10.88;7.97;;;;;;;17.12;70.27;96332.00;5081373;28;20036;-73
2023/06/26 01:58:14;;;;;;;12.50;7.60;;;;;;;17.06;70.64;96330.69;5073959;28;20044;-74
2023/06/26 02:00:41;;;;;;;10.75;7.72;;;;;;;17.08;71.55;96333.91;5077143;28;20056;-73
2023/06/26 02:03:07;;;;;;;12.43;8.07;;;;;;;17.00;71.36;96332.94;5076406;28;20041;-74
2023/06/26 02:05:34;;;;;;;9.95;7.40;;;;;;;17.00;71.11;96334.91;5076549;28;20066;-74
2023/06/26 02:08:01;;;;;;;10.55;7.82;;;;;;;17.02;71.56;96343.56;5076972;28;20047;-74
2023/06/26 02:10:27;;;;;;;12.10;8.07;;;;;;;17.00;71.29;96338.44;5075779;28;20048;-74
2023/06/26 02:12:54;;;;;;;12.05;8.20;;;;;;;17.03;71.45;96342.44;5071972;28;20044;-74
2023/06/26 02:15:22;;;;;;;11.45;8.23;;;;;;;17.01;71.66;96342.00;5087529;28;20052;-74
2023/06/26 02:17:49;;;;;;;12.50;8.32;;;;;;;17.03;71.62;96337.72;5077015;28;20041;-74
2023/06/26 02:20:16;;;;;;;10.68;7.72;;;;;;;17.04;71.22;96338.53;5072878;28;20407;-74
2023/06/26 02:22:42;;;;;;;11.85;8.20;;;;;;;16.99;71.42;96336.06;5074273;28;20051;-74
2023/06/26 02:25:09;;;;;;;11.43;8.20;;;;;;;16.89;71.34;96338.22;5072709;28;20056;-73
2023/06/26 02:27:36;;;;;;;10.82;7.70;;;;;;;16.93;71.51;96335.53;5070498;28;20055;-73
2023/06/26 02:30:03;;;;;;;13.23;8.27;;;;;;;16.88;71.44;96335.81;5069387;28;20067;-74
2023/06/26 02:32:30;;;;;;;11.73;7.68;;;;;;;16.60;72.40;96338.66;5069737;28;20044;-74
2023/06/26 02:34:57;;;;;;;14.55;8.85;;;;;;;16.42;73.11;96339.06;5062302;28;20047;-73
2023/06/26 02:37:23;;;;;;;11.23;8.32;;;;;;;16.50;72.60;96342.78;5069910;28;20047;-74
2023/06/26 02:39:50;;;;;;;13.07;9.00;;;;;;;16.46;71.94;96344.66;5085839;28;20049;-74
2023/06/26 02:42:16;;;;;;;11.30;7.72;;;;;;;16.47;71.90;96342.69;5069126;28;20051;-74
2023/06/26 02:44:43;;;;;;;13.10;8.55;;;;;;;16.27;72.12;96336.31;5071224;28;20048;-74
2023/06/26 02:47:09;;;;;;;12.30;8.60;;;;;;;16.11;73.06;96339.06;5069365;28;20048;-74
2023/06/26 02:49:37;;;;;;;12.27;9.10;;;;;;;16.03;73.40;96340.06;5069384;28;20056;-74
2023/06/26 02:52:04;;;;;;;11.45;8.57;;;;;;;15.85;73.55;96334.88;5069380;28;20044;-74
2023/06/26 02:54:31;;;;;;;10.65;7.65;;;;;;;15.97;72.76;96342.22;5069912;28;20047;-73
2023/06/26 02:56:57;;;;;;;12.27;8.50;;;;;;;16.00;72.63;96340.75;5069685;28;20044;-74
2023/06/26 02:59:24;;;;;;;11.38;7.80;;;;;;;16.17;72.40;96340.41;5069181;28;20040;-73
2023/06/26 03:01:50;;;;;;;10.48;7.65;;;;;;;16.29;72.16;96336.78;5069359;28;20048;-73
2023/06/26 03:04:17;;;;;;;11.50;7.75;;;;;;;16.35;71.62;96343.59;5069313;28;20048;-74
2023/06/26 03:06:45;;;;;;;10.38;7.82;;;;;;;16.28;70.50;96341.44;5069843;28;20040;-74
2023/06/26 03:09:12;;;;;;;12.05;7.90;;;;;;;16.30;70.61;96339.16;5069101;28;20044;-74
2023/06/26 03:11:38;;;;;;;11.60;8.10;;;;;;;16.28;70.62;96341.44;5069479;28;20048;-73
2023/06/26 03:14:05;;;;;;;10.85;7.85;;;;;;;16.21;70.82;96335.78;5073650;28;20040;-74
2023/06/26 03:16:31;;;;;;;12.30;7.88;;;;;;;16.09;71.25;96338.63;5086848;28;20060;-74
2023/06/26 03:18:57;;;;;;;11.73;8.02;;;;;;;16.02;71.25;96327.44;5076238;28;20044;-73
2023/06/26 03:21:24;;;;;;;12.80;7.93;;;;;;;16.10;71.17;96334.72;5075865;28;20040;-74
2023/06/26 03:23:52;;;;;;;12.95;8.75;;;;;;;15.93;71.44;96340.56;5076074;28;20389;-74
2023/06/26 03:26:18;;;;;;;13.20;8.85;;;;;;;15.58;72.74;96335.69;5076013;28;20048;-74
2023/06/26 03:28:45;;;;;;;14.02;9.50;;;;;;;15.49;73.88;96333.09;5075871;28;20488;-73
2023/06/26 03:31:11;;;;;;;13.38;8.38;;;;;;;15.36;73.78;96332.34;5075458;28;20048;-74
2023/06/26 03:33:39;;;;;;;15.23;8.60;;;;;;;15.44;73.92;96336.09;5078217;28;20051;-74
2023/06/26 03:36:06;;;;;;;13.05;7.45;;;;;;;15.67;72.77;96328.13;5078818;28;20048;-74
2023/06/26 03:38:32;;;;;;;14.40;8.70;;;;;;;15.58;72.12;96341.97;5076263;28;20090;-74
2023/06/26 03:41:00;;;;;;;17.80;9.00;;;;;;;15.60;72.26;96334.16;5075537;28;20075;-74
2023/06/26 03:43:27;;;;;;;11.35;8.15;;;;;;;15.67;72.34;96333.63;5068373;28;20043;-74
2023/06/26 03:45:53;;;;;;;13.40;8.05;;;;;;;15.72;72.04;96332.56;5075865;28;20495;-73
2023/06/26 03:48:20;;;;;;;11.85;8.55;;;;;;;15.62;71.50;96339.34;5075746;28;20067;-73
2023/06/26 03:50:47;;;;;;;13.07;9.55;;;;;;;15.59;71.48;96340.03;5075805;28;20051;-74
2023/06/26 03:53:13;;;;;;;12.57;8.00;;;;;;;15.72;71.70;96336.09;5075860;28;20063;-74
2023/06/26 03:55:40;;;;;;;15.00;8.57;;;;;;;15.83;71.98;96331.69;5072358;28;20039;-74
2023/06/26 03:58:07;;;;;;;11.02;7.70;;;;;;;16.02;71.78;96343.94;5075564;28;20053;-74
2023/06/26 04:00:34;;;;;;;11.65;7.78;;;;;;;15.97;70.12;96335.94;5075777;28;20040;-74
2023/06/26 04:03:00;;;;;;;18.83;8.20;;;;;;;16.00;69.74;96343.50;5075743;28;20044;-74
2023/06/26 04:05:27;;;;;;;13.80;8.25;;;;;;;16.04;70.25;96341.66;5075193;28;20398;-74
2023/06/26 04:07:54;;;;;;;10.48;7.28;;;;;;;16.16;71.49;96336.84;5062339;28;20041;-73
2023/06/26 04:10:21;;;;;;;11.77;7.63;;;;;;;16.27;71.24;96334.38;5083233;28;20043;-74
2023/06/26 04:12:48;;;;;;;10.15;7.32;;;;;;;16.37;71.25;96333.81;5075968;28;20041;-73
2023/06/26 04:15:16;;;;;;;10.73;7.43;;;;;;;16.40;69.83;96338.63;5077062;28;20040;-74
2023/06/26 04:17:42;;;;;;;10.15;7.20;;;;;;;16.44;69.14;96339.53;5075402;28;20048;-74
2023/06/26 04:20:09;;;;;;;10.18;7.45;;;;;;;16.42;69.54;96339.06;5079671;28;20395;-74
2023/06/26 04:22:36;;;;;;;10.93;7.35;;;;;;;16.46;68.82;96338.34;5079381;28;20049;-74
2023/06/26 04:25:04;;;;;;;12.05;7.65;;;;;;;16.50;69.11;96342.78;5075277;28;20086;-74
2023/06/26 04:27:31;;;;;;;11.00;7.50;;;;;;;16.52;68.75;96345.97;5073374;28;20044;-74
2023/06/26 04:29:57;;;;;;;11.65;8.27;;;;;;;16.58;69.11;96339.03;5072156;28;20041;-74
2023/06/26 04:32:25;;;;;;;10.35;6.82;;;;;;;16.65;69.06;96341.16;5067646;28;20036;-74
2023/06/26 04:34:52;;;;;;;11.40;7.53;;;;;;;16.73;68.99;96347.66;5074219;28;20052;-74
2023/06/26 04:37:18;;;;;;;11.27;6.95;;;;;;;16.78;69.34;96342.69;5073547;28;20048;-74
2023/06/26 04:39:45;;;;;;;11.00;6.60;;;;;;;16.84;68.40;96337.69;5072206;28;20385;-74
2023/06/26 04:42:12;;;;;;;9.98;6.95;;;;;;;16.90;67.48;96339.78;5071784;28;20037;-74
2023/06/26 04:44:40;;;;;;;10.85;7.57;;;;;;;16.95;65.75;96342.28;5072176;28;20135;-74
2023/06/26 04:47:07;;;;;;;11.00;6.93;;;;;;;17.03;64.45;96329.47;5063966;28;20040;-74
2023/06/26 04:49:35;;;;;;;9.35;6.60;;;;;;;17.12;64.28;96335.59;5072021;28;20049;-74
2023/06/26 04:52:02;;;;;;;9.80;6.75;;;;;;;17.22;65.08;96334.97;5071986;28;20389;-75
2023/06/26 04:54:29;;;;;;;12.35;7.07;;;;;;;17.26;65.31;96337.81;5071900;28;20043;-74
2023/06/26 04:56:56;;;;;;;11.73;6.82;;;;;;;17.36;64.52;96340.00;5072115;28;20407;-73
2023/06/26 04:59:23;;;;;;;9.90;6.85;;;;;;;17.44;64.28;96344.50;5071619;28;20110;-74
2023/06/26 05:01:49;;;;;;;11.43;6.90;;;;;;;17.47;63.73;96346.50;5071551;28;20510;-74
2023/06/26 05:04:16;;;;;;;10.20;7.00;;;;;;;17.53;62.89;96340.72;5071523;28;20049;-74
2023/06/26 05:06:44;;;;;;;10.35;6.75;;;;;;;17.43;60.75;96345.63;5071724;28;20127;-74
2023/06/26 05:09:11;;;;;;;12.57;7.45;;;;;;;17.48;60.76;96353.59;5071304;28;20401;-74
2023/06/26 05:11:37;;;;;;;10.57;6.97;;;;;;;17.58;60.62;96345.94;5071640;28;20072;-73
2023/06/26 05:14:06;;;;;;;11.30;6.90;;;;;;;17.67;60.50;96344.53;5073542;28;20036;-74
2023/06/26 05:16:33;;;;;;;10.68;6.65;;;;;;;17.61;59.77;96347.97;5071356;28;20097;-73
2023/06/26 05:19:00;;;;;;;12.32;6.68;;;;;;;17.69;59.69;96347.72;5071249;28;20048;-73
2023/06/26 05:21:27;;;;;;;11.65;7.45;;;;;;;17.74;59.60;96343.91;5070826;28;20048;-74
2023/06/26 05:23:57;;;;;;;11.23;7.35;;;;;;;17.66;59.31;96342.16;5071508;28;20048;-74
2023/06/26 05:26:24;;;;;;;11.98;7.50;;;;;;;17.69;59.70;96339.47;5071081;28;20047;-74
2023/06/26 05:28:51;;;;;;;11.60;7.55;;;;;;;17.73;59.40;96342.31;5070759;28;20416;-74
2023/06/26 05:31:18;;;;;;;11.05;7.22;;;;;;;17.82;58.95;96337.38;5070877;28;20515;-74
2023/06/26 05:33:46;;;;;;;8.45;6.10;;;;;;;17.88;58.52;96343.38;5071533;28;20504;-74
2023/06/26 05:36:13;;;;;;;10.98;6.93;;;;;;;17.89;58.11;96339.47;5070452;28;20404;-74
2023/06/26 05:38:40;;;;;;;9.63;6.03;;;;;;;18.14;58.42;96331.66;5070325;28;20071;-73
2023/06/26 05:41:09;;;;;;;12.20;7.28;;;;;;;18.24;58.78;96334.59;5070023;28;20536;-74
2023/06/26 05:43:35;;;;;;;11.63;6.55;;;;;;;18.15;58.35;96336.78;5073234;28;20053;-73
2023/06/26 05:46:02;;;;;;;8.27;6.13;;;;;;;18.38;58.16;96345.06;5070929;28;20037;-75
2023/06/26 05:48:28;;;;;;;18.52;7.22;;;;;;;18.32;57.98;96324.47;5071058;28;20055;-74
2023/06/26 05:50:55;;;;;;;8.82;6.35;;;;;;;18.44;57.52;96337.28;5070760;28;20543;-74
2023/06/26 05:53:23;;;;;;;9.25;6.28;;;;;;;18.51;57.86;96335.41;5069965;28;20052;-74
2023/06/26 05:55:50;;;;;;;12.68;7.05;;;;;;;18.57;57.87;96332.34;5070716;28;20055;-74
2023/06/26 05:58:20;;;;;;;11.18;7.20;;;;;;;18.73;57.81;96338.53;5070505;28;20123;-74
2023/06/26 06:00:46;;;;;;;11.90;6.80;;;;;;;18.88;57.47;96334.81;5070502;28;20047;-74
2023/06/26 06:03:13;;;;;;;10.63;6.72;;;;;;;18.91;57.51;96338.81;5070309;28;20048;-74
2023/06/26 06:05:39;;;;;;;10.82;7.38;;;;;;;19.06;57.86;96334.28;5079442;28;20389;-74
2023/06/26 06:08:06;;;;;;;11.70;7.13;;;;;;;19.07;57.68;96335.88;5069997;28;20424;-75
2023/06/26 06:10:32;;;;;;;13.10;7.13;;;;;;;19.13;57.11;96328.88;5070124;28;20051;-74
2023/06/26 06:12:59;;;;;;;10.20;6.88;;;;;;;19.22;57.14;96327.41;5070672;28;20067;-74
2023/06/26 06:15:27;;;;;;;10.50;6.72;;;;;;;19.35;56.86;96330.72;5072605;28;20051;-74
2023/06/26 06:17:53;;;;;;;11.02;7.22;;;;;;;19.50;56.38;96332.50;5070206;28;20060;-74
2023/06/26 06:20:20;;;;;;;11.77;6.93;;;;;;;19.52;55.83;96334.88;5069964;28;20048;-74
2023/06/26 06:22:48;;;;;;;9.35;6.78;;;;;;;19.69;55.90;96328.81;5070235;28;20064;-74
2023/06/26 06:25:15;;;;;;;12.55;7.05;;;;;;;19.78;56.03;96325.72;5070011;28;20052;-74
2023/06/26 06:27:41;;;;;;;10.25;6.78;;;;;;;19.97;56.02;96333.03;5070256;28;20041;-74
2023/06/26 06:30:09;;;;;;;10.75;6.68;;;;;;;19.98;56.00;96329.09;5069533;28;20033;-73
2023/06/26 06:32:37;;;;;;;9.52;6.60;;;;;;;20.15;56.09;96334.00;5070631;28;20037;-74
2023/06/26 06:35:09;;;;;;;11.15;6.78;;;;;;;20.23;56.86;96327.34;5069436;28;20048;-74
2023/06/26 06:37:35;;;;;;;9.15;6.85;;;;;;;20.25;56.09;96329.72;5069605;28;20117;-75
2023/06/26 06:40:03;;;;;;;11.55;7.32;;;;;;;20.44;55.82;96329.50;5069174;28;20041;-77
2023/06/26 06:42:29;;;;;;;10.05;7.00;;;;;;;20.52;56.48;96325.66;5070132;28;20509;-75
2023/06/26 06:44:56;;;;;;;10.68;6.70;;;;;;;20.64;56.70;96323.78;5069573;28;20048;-75
2023/06/26 06:47:22;;;;;;;11.82;7.10;;;;;;;20.68;55.94;96321.84;5069612;28;20093;-75
2023/06/26 06:49:50;;;;;;;11.95;6.75;;;;;;;20.89;56.14;96321.97;5069376;28;20055;-75
2023/06/26 06:52:16;;;;;;;11.05;6.80;;;;;;;21.07;56.37;96327.59;5069493;28;20059;-75
2023/06/26 06:54:53;;;;;;;10.80;7.25;;;;;;;21.18;53.63;96328.47;5069853;28;20044;-75
2023/06/26 06:57:20;;;;;;;10.52;7.28;;;;;;;21.21;51.79;96332.44;5074897;28;20132;-74
2023/06/26 06:59:47;;;;;;;12.10;7.47;;;;;;;21.41;52.40;96338.50;5080069;28;20043;-74
2023/06/26 07:02:13;;;;;;;11.00;7.50;;;;;;;21.53;53.13;96330.63;5069013;28;20048;-74
2023/06/26 07:04:40;;;;;;;11.93;6.78;;;;;;;21.49;52.74;96338.13;5069358;28;20044;-74
2023/06/26 07:07:08;;;;;;;12.13;7.80;;;;;;;21.59;51.54;96333.81;5075442;28;20048;-74
2023/06/26 07:09:35;;;;;;;12.02;7.28;;;;;;;21.63;51.70;96338.19;5064135;28;20131;-75
2023/06/26 07:12:02;;;;;;;9.60;7.03;;;;;;;21.75;51.75;96334.28;5070526;28;20047;-74
2023/06/26 07:14:29;;;;;;;10.63;6.95;;;;;;;21.87;51.66;96341.44;5072788;28;20045;-75
2023/06/26 07:16:55;;;;;;;18.80;8.10;;;;;;;21.90;50.97;96337.88;5069202;28;20040;-75
2023/06/26 07:19:21;;;;;;;12.52;7.82;;;;;;;21.95;50.55;96342.25;5069012;28;20056;-75
2023/06/26 07:21:48;;;;;;;10.13;6.68;;;;;;;22.02;50.65;96343.06;5069323;28;20049;-74
2023/06/26 07:24:16;;;;;;;14.90;7.22;;;;;;;22.08;51.24;96335.97;5069340;28;20060;-74
2023/06/26 07:26:42;;;;;;;9.45;6.60;;;;;;;22.26;51.47;96336.00;5069583;28;20408;-75
2023/06/26 07:29:09;;;;;;;11.50;7.32;;;;;;;22.35;52.57;96332.84;5069132;28;20055;-73
2023/06/26 07:31:35;;;;;;;14.00;7.82;;;;;;;22.40;49.80;96324.91;5069626;28;20056;-73
2023/06/26 07:34:02;;;;;;;13.20;7.20;;;;;;;22.53;51.85;96324.53;5069215;28;20043;-74
2023/06/26 07:36:28;;;;;;;11.70;8.50;;;;;;;22.57;49.92;96328.88;5069393;28;20051;-73
2023/06/26 07:38:55;;;;;;;11.68;7.40;;;;;;;22.65;50.65;96330.44;5069296;28;20048;-73
2023/06/26 07:41:22;;;;;;;12.52;7.72;;;;;;;22.74;49.23;96330.06;5067881;28;20114;-73
2023/06/26 07:43:49;;;;;;;10.05;7.15;;;;;;;22.91;50.25;96331.25;5069403;28;20045;-73
2023/06/26 07:46:15;;;;;;;14.25;8.18;;;;;;;22.95;49.40;96325.69;5068651;28;20049;-75
2023/06/26 07:48:42;;;;;;;10.23;7.53;;;;;;;23.05;49.35;96331.22;5069053;28;20040;-74
2023/06/26 07:51:08;;;;;;;13.30;7.68;;;;;;;23.11;49.46;96331.63;5067594;28;20044;-76
2023/06/26 07:53:35;;;;;;;10.68;6.95;;;;;;;23.33;49.63;96326.78;5069386;28;20044;-74
2023/06/26 07:56:01;;;;;;;11.40;7.30;;;;;;;23.57;49.73;96327.91;5069126;28;20674;-74
2023/06/26 07:58:29;;;;;;;9.20;6.90;;;;;;;23.57;48.77;96328.69;5069434;28;20052;-74
2023/06/26 08:00:55;;;;;;;10.73;7.53;;;;;;;23.68;47.74;96321.13;5071059;28;20063;-74
2023/06/26 08:03:23;;;;;;;12.90;7.72;;;;;;;23.90;48.67;96323.78;5074082;28;20052;-74
2023/06/26 08:05:50;;;;;;;9.20;7.00;;;;;;;23.84;45.50;96326.22;5075683;28;20037;-74
2023/06/26 08:08:16;;;;;;;8.55;6.68;;;;;;;23.93;46.12;96323.00;5074999;28;20048;-73
2023/06/26 08:10:43;;;;;;;9.80;6.95;;;;;;;24.10;47.15;96327.66;5075986;28;20066;-74
2023/06/26 08:13:09;;;;;;;9.75;6.97;;;;;;;24.23;46.57;96325.19;5075217;28;20039;-74
2023/06/26 08:15:37;;;;;;;11.70;6.70;;;;;;;24.38;46.17;96337.03;5078723;28;20053;-73
2023/06/26 08:18:04;;;;;;;10.75;6.18;;;;;;;24.54;46.24;96328.97;5074397;28;20520;-74
2023/06/26 08:20:30;;;;;;;11.57;7.65;;;;;;;24.55;45.21;96319.41;5076042;28;20066;-74
2023/06/26 08:22:57;;;;;;;11.85;6.88;;;;;;;24.78;47.46;96320.81;5075331;28;20040;-74
2023/06/26 08:25:23;;;;;;;10.40;6.68;;;;;;;25.05;46.76;96313.38;5074874;28;20056;-74
2023/06/26 08:27:52;;;;;;;13.48;6.97;;;;;;;25.25;45.20;96311.59;5075262;28;20048;-74
2023/06/26 08:30:19;;;;;;;11.85;7.28;;;;;;;25.34;44.20;96318.69;5077861;28;20044;-74
2023/06/26 08:32:46;;;;;;;9.73;7.22;;;;;;;25.43;44.07;96316.19;5073050;28;20048;-74
2023/06/26 08:35:13;;;;;;;9.95;6.50;;;;;;;25.64;43.81;96315.94;5071549;28;20052;-73
2023/06/26 08:37:39;;;;;;;11.73;7.10;;;;;;;25.63;40.50;96313.53;5072506;28;20531;-75
2023/06/26 08:40:08;;;;;;;7.80;6.03;;;;;;;25.77;42.17;96314.19;5080288;28;20516;-75
2023/06/26 08:42:34;;;;;;;9.25;6.55;;;;;;;25.84;42.45;96304.94;5072384;28;20044;-75
2023/06/26 08:45:01;;;;;;;11.25;6.28;;;;;;;26.04;40.92;96310.63;5074508;28;20045;-76
2023/06/26 08:47:28;;;;;;;9.65;7.13;;;;;;;26.28;42.13;96309.47;5071946;28;20043;-75
2023/06/26 08:50:02;;;;;;;13.13;6.82;;;;;;;26.31;40.08;96302.28;5070980;28;20048;-75
2023/06/26 08:52:31;;;;;;;9.77;6.22;;;;;;;26.51;38.79;96310.75;5071817;28;20052;-74
2023/06/26 08:54:59;;;;;;;7.55;5.90;;;;;;;26.46;37.79;96308.44;5069184;28;20047;-75
2023/06/26 08:57:27;;;;;;;7.93;6.43;;;;;;;26.67;41.26;96313.66;5071424;28;20037;-75
2023/06/26 08:59:54;;;;;;;8.55;6.18;;;;;;;26.76;38.02;96308.31;5071675;28;20041;-74
2023/06/26 09:02:21;;;;;;;8.25;6.30;;;;;;;26.92;37.79;96302.06;5063096;28;20041;-74
2023/06/26 09:04:49;;;;;;;7.97;6.65;;;;;;;26.96;37.65;96304.78;5071829;28;20036;-75
2023/06/26 09:07:16;;;;;;;7.70;6.22;;;;;;;27.00;39.38;96308.31;5071322;28;20044;-75
2023/06/26 09:09:43;;;;;;;10.07;6.15;;;;;;;27.05;39.43;96305.03;5070979;28;20510;-74
2023/06/26 09:12:10;;;;;;;8.38;6.07;;;;;;;27.13;40.55;96298.13;5070953;28;20040;-75
2023/06/26 09:14:37;;;;;;;8.80;5.65;;;;;;;27.36;40.11;96297.28;5077212;28;20044;-74
2023/06/26 09:17:04;;;;;;;8.80;5.95;;;;;;;27.51;39.46;96295.78;5088742;28;20044;-75
2023/06/26 09:19:31;;;;;;;8.45;6.53;;;;;;;27.60;38.38;96294.41;5067557;28;20047;-73
2023/06/26 09:21:57;;;;;;;9.25;6.03;;;;;;;27.70;37.72;96291.41;5071438;28;20044;-74
2023/06/26 09:24:26;;;;;;;7.78;6.03;;;;;;;27.68;39.22;96291.03;5071180;28;20051;-73
2023/06/26 09:26:52;;;;;;;7.35;5.63;;;;;;;27.88;38.30;96296.63;5071500;28;20043;-74
2023/06/26 09:29:20;;;;;;;7.03;5.80;;;;;;;27.83;38.44;96294.34;5070940;28;20044;-74
2023/06/26 09:31:46;;;;;;;8.55;5.78;;;;;;;27.83;37.20;96283.94;5071017;28;20052;-75
2023/06/26 09:34:13;;;;;;;7.78;6.22;;;;;;;27.87;38.26;96286.66;5070530;28;20055;-76
2023/06/26 09:36:42;;;;;;;7.88;5.90;;;;;;;27.90;38.64;96282.19;5070859;28;20047;-74
2023/06/26 09:39:10;;;;;;;6.93;5.55;;;;;;;27.97;38.73;96290.44;5070302;28;20040;-73
2023/06/26 09:41:38;;;;;;;8.93;5.40;;;;;;;28.15;38.96;96274.03;5070721;28;20044;-73
2023/06/26 09:44:08;;;;;;;8.23;5.32;;;;;;;28.25;37.73;96283.41;5071554;28;20048;-74
2023/06/26 09:46:35;;;;;;;8.68;6.13;;;;;;;28.36;38.45;96283.19;5074506;28;20037;-75
2023/06/26 09:49:06;;;;;;;8.82;5.50;;;;;;;28.49;37.08;96284.84;5070330;28;20051;-75
2023/06/26 09:51:33;;;;;;;7.13;5.53;;;;;;;28.45;38.56;96272.13;5070756;28;20048;-74
2023/06/26 09:54:00;;;;;;;7.72;5.80;;;;;;;28.48;36.19;96271.28;5070783;28;20063;-75
2023/06/26 09:56:28;;;;;;;6.75;5.90;;;;;;;28.52;36.27;96269.19;5070255;28;20040;-75
2023/06/26 09:58:57;;;;;;;7.22;5.45;;;;;;;28.52;35.08;96274.78;5070448;28;20048;-75
2023/06/26 10:01:24;;;;;;;6.32;5.00;;;;;;;28.57;37.60;96265.84;5062121;28;20500;-75
2023/06/26 10:03:51;;;;;;;18.30;6.65;;;;;;;28.68;38.06;96262.78;5070547;28;20036;-75
2023/06/26 10:06:23;;;;;;;9.90;5.43;;;;;;;28.85;35.54;96258.72;5069779;28;20067;-75
2023/06/26 10:08:50;;;;;;;10.60;5.73;;;;;;;29.00;36.17;96256.34;5070391;28;20471;-76
2023/06/26 10:11:20;;;;;;;6.75;5.40;;;;;;;28.97;35.09;96248.81;5069592;28;20278;-75
2023/06/26 10:13:50;;;;;;;6.68;5.30;;;;;;;29.02;36.85;96245.47;5070481;28;20036;-74
2023/06/26 10:16:23;;;;;;;7.50;5.35;;;;;;;29.08;34.24;96254.94;5088878;28;20051;-75
2023/06/26 10:18:53;;;;;;;6.50;4.90;;;;;;;29.06;35.61;96246.16;5082042;28;20044;-75
2023/06/26 10:21:23;;;;;;;7.18;5.07;;;;;;;29.19;35.56;96247.03;5069347;28;20446;-74
2023/06/26 10:23:52;;;;;;;5.07;4.18;;;;;;;29.30;34.53;96250.31;5070366;28;20063;-75
2023/06/26 10:26:21;;;;;;;6.35;4.35;;;;;;;29.31;32.64;96246.25;5069228;28;20052;-74
2023/06/26 10:28:51;;;;;;;8.02;4.63;;;;;;;29.43;32.93;96257.97;5069862;28;20045;-75
2023/06/26 10:31:22;;;;;;;6.35;4.18;;;;;;;29.39;33.74;96246.84;5069305;28;20048;-75
2023/06/26 10:33:49;;;;;;;8.43;4.60;;;;;;;29.55;33.40;96251.66;5070018;28;20037;-74
2023/06/26 10:36:18;;;;;;;7.18;4.50;;;;;;;29.49;32.58;96244.97;5068946;28;20496;-75
2023/06/26 10:38:50;;;;;;;5.13;4.13;;;;;;;29.70;32.87;96254.78;5069843;28;20048;-75
2023/06/26 10:41:21;;;;;;;5.35;4.10;;;;;;;29.76;32.77;96248.19;5069415;28;20048;-75
2023/06/26 10:43:50;;;;;;;5.72;4.38;;;;;;;29.75;31.79;96243.78;5069959;28;20435;-75
2023/06/26 10:46:21;;;;;;;7.22;4.57;;;;;;;29.73;33.25;96237.84;5088416;28;20051;-75
2023/06/26 10:48:58;;;;;;;10.20;4.93;;;;;;;29.88;33.52;96239.00;5082686;28;20045;-75
2023/06/26 10:51:25;;;;;;;6.47;4.65;;;;;;;29.96;32.84;96228.31;5069354;28;20083;-75
2023/06/26 10:53:55;;;;;;;10.55;6.40;;;;;;;30.05;31.81;96244.50;5069510;28;20119;-76
2023/06/26 10:56:21;;;;;;;5.88;4.65;;;;;;;30.01;31.09;96241.00;5072064;28;20058;-75
2023/06/26 10:58:49;;;;;;;7.20;4.57;;;;;;;29.98;32.92;96237.09;5069154;28;20044;-75
2023/06/26 11:01:26;;;;;;;5.50;4.70;;;;;;;29.94;33.44;96225.19;5068941;28;20052;-75
2023/06/26 11:04:05;;;;;;;5.50;4.47;;;;;;;30.06;32.46;96229.22;5069661;28;20057;-75
2023/06/26 11:06:34;;;;;;;9.10;4.75;;;;;;;30.00;32.45;96228.22;5069134;28;20040;-75
2023/06/26 11:09:07;;;;;;;7.53;4.85;;;;;;;29.97;31.58;96217.91;5069105;28;20056;-74
2023/06/26 11:11:58;;;;;;;7.88;4.82;;;;;;;30.01;32.25;96212.94;5069426;28;20492;-75
2023/06/26 11:14:26;;;;;;;8.45;4.60;;;;;;;29.93;33.24;96214.41;5072180;28;20055;-74
2023/06/26 11:16:56;;;;;;;6.32;4.95;;;;;;;30.09;34.05;96208.69;5089528;28;20048;-74
2023/06/26 11:19:23;;;;;;;6.45;4.82;;;;;;;30.24;31.37;96212.63;5078057;28;20044;-75
2023/06/26 11:21:50;;;;;;;9.05;4.95;;;;;;;30.36;32.33;96217.44;5069232;28;20037;-77
2023/06/26 11:24:17;;;;;;;7.95;5.22;;;;;;;30.25;33.68;96221.84;5069789;28;20543;-74
2023/06/26 11:26:44;;;;;;;6.82;4.90;;;;;;;30.29;32.40;96216.91;5070687;28;20051;-75
2023/06/26 11:29:12;;;;;;;6.28;4.43;;;;;;;30.44;32.18;96206.75;5069537;28;20045;-76
2023/06/26 11:31:40;;;;;;;7.28;4.80;;;;;;;30.40;32.90;96206.09;5066719;28;20055;-75